createdAt,value
2023-03-28T00:00:32.881Z,100249.94
2023-03-28T00:03:22.687Z,100250.88
2023-03-28T00:05:57.383Z,100254.96
2023-03-28T00:08:30.899Z,100252.59
2023-03-28T00:11:07.401Z,100251.11
2023-03-28T00:13:39.322Z,100249.94
2023-03-28T00:16:13.789Z,100254.20
2023-03-28T00:18:46.799Z,100255.08
2023-03-28T00:21:26.124Z,100251.27
2023-03-28T00:24:02.037Z,100252.86
2023-03-28T00:26:35.764Z,100247.20
2023-03-28T00:29:09.204Z,100242.98
2023-03-28T00:31:42.656Z,100239.98
2023-03-28T00:34:15.556Z,100242.46
2023-03-28T00:36:50.929Z,100242.50
2023-03-28T00:39:23.351Z,100238.56
2023-03-28T00:41:55.857Z,100233.76
2023-03-28T00:44:48.943Z,100229.40
2023-03-28T00:47:37.050Z,100224.14
2023-03-28T00:50:13.054Z,100220.66
2023-03-28T00:52:50.086Z,100216.89
2023-03-28T00:55:25.231Z,100220.02
2023-03-28T00:57:57.426Z,100221.01
2023-03-28T01:00:31.021Z,100227.06
2023-03-28T01:03:06.936Z,100229.95
2023-03-28T01:05:39.454Z,100228.57
2023-03-28T01:08:16.220Z,100228.92
2023-03-28T01:10:48.243Z,100228.08
2023-03-28T01:13:22.602Z,100230.42
2023-03-28T01:15:54.599Z,100228.17
2023-03-28T01:18:26.821Z,100221.41
2023-03-28T01:21:31.402Z,100218.86
2023-03-28T01:24:36.281Z,100216.23
2023-03-28T01:27:12.437Z,100212.95
2023-03-28T01:30:29.441Z,100210.35
2023-03-28T01:33:46.975Z,100199.89
2023-03-28T01:36:52.256Z,100197.52
2023-03-28T01:39:30.610Z,100191.06
2023-03-28T01:42:06.828Z,100185.77
2023-03-28T01:44:43.258Z,100195.45
2023-03-28T01:47:19.673Z,100194.33
2023-03-28T01:49:56.019Z,100185.38
2023-03-28T01:52:34.155Z,100178.70
2023-03-28T01:55:13.876Z,100182.04
2023-03-28T01:57:50.228Z,100185.80
2023-03-28T02:00:25.541Z,100189.27
2023-03-28T02:03:00.892Z,100193.36
2023-03-28T02:05:35.026Z,100194.19
2023-03-28T02:08:06.168Z,100195.74
2023-03-28T02:10:40.889Z,100196.23
2023-03-28T02:13:15.447Z,100189.20
2023-03-28T02:15:49.962Z,100188.16
2023-03-28T02:18:26.639Z,100187.11
2023-03-28T02:21:01.609Z,100185.72
2023-03-28T02:23:38.257Z,100187.09
2023-03-28T02:26:10.738Z,100183.97
2023-03-28T02:28:44.994Z,100178.88
2023-03-28T02:31:15.451Z,100175.09
2023-03-28T02:33:48.772Z,100178.33
2023-03-28T02:36:31.367Z,100187.02
2023-03-28T02:39:16.874Z,100183.16
2023-03-28T02:42:02.840Z,100183.98
2023-03-28T02:44:50.501Z,100180.09
2023-03-28T02:47:26.529Z,100179.08
2023-03-28T02:50:04.181Z,100171.98
2023-03-28T02:52:50.669Z,100168.13
2023-03-28T02:55:27.079Z,100166.70
2023-03-28T02:58:03.036Z,100170.26
2023-03-28T03:00:36.132Z,100169.02
2023-03-28T03:03:10.596Z,100169.13
2023-03-28T03:05:43.088Z,100164.48
2023-03-28T03:08:14.895Z,100169.29
2023-03-28T03:10:46.737Z,100168.26
2023-03-28T03:13:18.810Z,100172.21
2023-03-28T03:15:50.838Z,100166.01
2023-03-28T03:18:22.914Z,100162.29
2023-03-28T03:20:55.097Z,100159.45
2023-03-28T03:23:27.130Z,100155.94
2023-03-28T03:25:59.149Z,100152.80
2023-03-28T03:28:32.339Z,100149.44
2023-03-28T03:31:04.339Z,100149.23
2023-03-28T03:33:37.763Z,100148.30
2023-03-28T03:36:12.837Z,100149.41
2023-03-28T03:38:44.690Z,100142.48
2023-03-28T03:41:17.469Z,100145.73
2023-03-28T03:43:49.434Z,100141.88
2023-03-28T03:46:22.372Z,100141.85
2023-03-28T03:48:54.520Z,100140.27
2023-03-28T03:51:26.393Z,100149.58
2023-03-28T03:53:59.968Z,100150.66
2023-03-28T03:56:31.810Z,100146.08
2023-03-28T03:59:03.650Z,100145.18
2023-03-28T04:01:35.585Z,100145.98
2023-03-28T04:04:08.108Z,100144.05
2023-03-28T04:06:40.281Z,100133.34
2023-03-28T04:09:12.062Z,100135.28
2023-03-28T04:11:44.164Z,100137.58
2023-03-28T04:14:16.135Z,100130.61
2023-03-28T04:16:51.268Z,100125.72
2023-03-28T04:19:24.401Z,100126.20
2023-03-28T04:21:57.661Z,100127.54
2023-03-28T04:24:29.545Z,100131.97
2023-03-28T04:27:01.643Z,100134.03
2023-03-28T04:29:33.523Z,100134.77
2023-03-28T04:32:06.953Z,100136.45
2023-03-28T04:34:39.320Z,100135.16
2023-03-28T04:37:12.140Z,100137.88
2023-03-28T04:39:44.711Z,100135.36
2023-03-28T04:42:17.220Z,100133.09
2023-03-28T04:44:48.954Z,100135.11
2023-03-28T04:47:20.914Z,100136.39
2023-03-28T04:49:52.699Z,100136.98
2023-03-28T04:52:24.838Z,100139.90
2023-03-28T04:54:59.140Z,100140.30
2023-03-28T04:57:31.202Z,100141.39
2023-03-28T05:00:05.495Z,100141.84
2023-03-28T05:02:37.685Z,100139.77
2023-03-28T05:05:10.776Z,100137.59
2023-03-28T05:07:42.858Z,100143.85
2023-03-28T05:10:14.876Z,100143.59
2023-03-28T05:12:47.154Z,100139.41
2023-03-28T05:15:22.183Z,100140.41
2023-03-28T05:17:55.747Z,100139.44
2023-03-28T05:20:27.846Z,100133.17
2023-03-28T05:23:01.662Z,100131.06
2023-03-28T05:25:33.725Z,100125.70
2023-03-28T05:28:06.421Z,100126.81
2023-03-28T05:30:38.222Z,100125.08
2023-03-28T05:33:10.704Z,100129.66
2023-03-28T05:35:42.724Z,100125.83
2023-03-28T05:38:16.836Z,100125.08
2023-03-28T05:40:49.041Z,100128.86
2023-03-28T05:43:21.252Z,100132.66
2023-03-28T05:45:53.593Z,100131.09
2023-03-28T05:48:27.981Z,100127.55
2023-03-28T05:51:03.300Z,100133.73
2023-03-28T05:53:35.708Z,100130.50
2023-03-28T05:56:09.264Z,100131.49
2023-03-28T05:58:42.077Z,100131.28
2023-03-28T06:01:18.577Z,100127.35
2023-03-28T06:03:50.420Z,100128.17
2023-03-28T06:06:22.374Z,100128.77
2023-03-28T06:08:54.219Z,100129.99
2023-03-28T06:11:27.236Z,100133.29
2023-03-28T06:13:59.307Z,100138.67
2023-03-28T06:16:31.518Z,100146.05
2023-03-28T06:19:16.575Z,100151.16
2023-03-28T06:21:50.057Z,100150.38
2023-03-28T06:24:22.084Z,100151.94
2023-03-28T06:26:54.041Z,100156.73
2023-03-28T06:29:26.019Z,100155.61
2023-03-28T06:31:58.144Z,100156.23
2023-03-28T06:34:30.074Z,100158.63
2023-03-28T06:37:02.076Z,100161.98
2023-03-28T06:39:33.985Z,100163.02
2023-03-28T06:42:06.326Z,100166.33
2023-03-28T06:44:38.327Z,100160.41
2023-03-28T06:47:10.388Z,100161.88
2023-03-28T06:49:42.298Z,100167.55
2023-03-28T06:52:14.298Z,100165.67
2023-03-28T06:54:48.497Z,100168.41
2023-03-28T06:57:20.860Z,100172.12
2023-03-28T06:59:53.943Z,100174.02
2023-03-28T07:02:26.764Z,100173.27
2023-03-28T07:04:59.082Z,100179.55
2023-03-28T07:07:31.680Z,100179.47
2023-03-28T07:10:04.051Z,100183.04
2023-03-28T07:12:36.387Z,100186.63
2023-03-28T07:15:09.904Z,100191.64
2023-03-28T07:17:41.957Z,100189.77
2023-03-28T07:20:15.126Z,100195.16
2023-03-28T07:22:47.103Z,100193.78
2023-03-28T07:25:19.382Z,100195.55
2023-03-28T07:27:51.416Z,100197.73
2023-03-28T07:30:23.381Z,100202.84
2023-03-28T07:33:06.481Z,100204.43
2023-03-28T07:35:44.681Z,100204.11
2023-03-28T07:38:17.039Z,100206.46
2023-03-28T07:40:49.170Z,100209.86
2023-03-28T07:43:21.451Z,100213.36
2023-03-28T07:45:54.464Z,100219.32
2023-03-28T07:48:26.586Z,100220.02
2023-03-28T07:51:00.180Z,100219.30
2023-03-28T07:53:32.516Z,100219.77
2023-03-28T07:56:04.794Z,100222.66
2023-03-28T07:58:36.916Z,100224.52
2023-03-28T08:01:11.111Z,100227.48
2023-03-28T08:03:43.801Z,100230.94
2023-03-28T08:06:30.874Z,100232.03
2023-03-28T08:09:03.861Z,100232.41
2023-03-28T08:11:36.227Z,100234.08
2023-03-28T08:14:10.100Z,100235.71
2023-03-28T08:16:42.106Z,100230.93
2023-03-28T08:19:14.206Z,100232.95
2023-03-28T08:21:46.360Z,100233.84
2023-03-28T08:24:28.967Z,100232.63
2023-03-28T08:27:05.176Z,100236.52
2023-03-28T08:29:37.035Z,100236.77
2023-03-28T08:32:09.404Z,100236.92
2023-03-28T08:34:41.388Z,100241.85
2023-03-28T08:37:13.416Z,100244.02
2023-03-28T08:39:45.337Z,100238.13
2023-03-28T08:42:42.402Z,100241.34
2023-03-28T08:45:30.214Z,100242.79
2023-03-28T08:48:13.715Z,100245.61
2023-03-28T08:50:48.104Z,100246.35
2023-03-28T08:53:27.929Z,100247.82
2023-03-28T08:56:00.355Z,100245.95
2023-03-28T08:58:36.568Z,100252.53
2023-03-28T09:01:11.382Z,100248.38
2023-03-28T09:03:43.488Z,100252.22
2023-03-28T09:06:25.019Z,100248.50
2023-03-28T09:09:08.757Z,100250.27
2023-03-28T09:11:49.303Z,100251.94
2023-03-28T09:14:29.884Z,100248.91
2023-03-28T09:17:07.686Z,100246.77
2023-03-28T09:19:49.118Z,100258.08
2023-03-28T09:22:31.821Z,100260.52
2023-03-28T09:25:22.054Z,100254.77
2023-03-28T09:28:00.102Z,100256.77
2023-03-28T09:30:33.962Z,100263.44
2023-03-28T09:33:11.784Z,100270.89
2023-03-28T09:35:44.566Z,100285.13
2023-03-28T09:38:22.060Z,100300.44
2023-03-28T09:40:56.206Z,100304.52
2023-03-28T09:43:28.277Z,100310.05
2023-03-28T09:46:03.456Z,100308.44
2023-03-28T09:48:37.213Z,100320.05
2023-03-28T09:51:08.719Z,100322.50
2023-03-28T09:53:40.530Z,100326.75
2023-03-28T09:56:19.934Z,100330.51
2023-03-28T09:58:53.709Z,100337.96
2023-03-28T10:01:37.774Z,100339.68
2023-03-28T10:04:14.448Z,100348.40
2023-03-28T10:06:48.301Z,100349.63
2023-03-28T10:09:22.532Z,100352.72
2023-03-28T10:11:57.693Z,100366.94
2023-03-28T10:14:34.587Z,100366.13
2023-03-28T10:17:08.526Z,100374.08
2023-03-28T10:19:43.810Z,100379.25
2023-03-28T10:22:17.722Z,100390.71
2023-03-28T10:24:50.432Z,100386.59
2023-03-28T10:27:27.971Z,100397.50
2023-03-28T10:30:09.062Z,100396.92
2023-03-28T10:32:41.773Z,100405.34
2023-03-28T10:35:26.228Z,100410.33
2023-03-28T10:37:59.702Z,100420.69
2023-03-28T10:40:33.265Z,100415.45
2023-03-28T10:43:06.122Z,100425.95
2023-03-28T10:45:40.787Z,100423.26
2023-03-28T10:48:16.819Z,100438.38
2023-03-28T10:50:50.286Z,100444.75
2023-03-28T10:53:32.759Z,100447.39
2023-03-28T10:56:14.356Z,100454.55
2023-03-28T10:58:52.630Z,100457.99
2023-03-28T11:01:28.831Z,100469.56
2023-03-28T11:04:11.460Z,100475.02
2023-03-28T11:06:49.546Z,100474.61
2023-03-28T11:09:26.253Z,100481.85
2023-03-28T11:12:06.249Z,100484.23
2023-03-28T11:14:48.588Z,100488.94
2023-03-28T11:17:26.828Z,100487.75
2023-03-28T11:20:18.472Z,100490.42
2023-03-28T11:23:05.711Z,100489.71
2023-03-28T11:25:47.455Z,100493.61
2023-03-28T11:28:27.460Z,100492.88
2023-03-28T11:31:01.965Z,100494.48
2023-03-28T11:33:41.352Z,100498.40
2023-03-28T11:36:16.664Z,100507.70
2023-03-28T11:38:52.352Z,100504.23
2023-03-28T11:41:27.120Z,100507.42
2023-03-28T11:44:02.410Z,100515.33
2023-03-28T11:46:37.054Z,100517.80
2023-03-28T11:49:17.305Z,100515.36
2023-03-28T11:51:54.775Z,100519.89
2023-03-28T11:54:30.501Z,100522.14
2023-03-28T11:57:07.273Z,100528.17
2023-03-28T11:59:43.247Z,100529.90
2023-03-28T12:02:24.415Z,100536.26
2023-03-28T12:05:00.944Z,100541.55
2023-03-28T12:07:38.466Z,100546.77
2023-03-28T12:10:20.010Z,100545.51
2023-03-28T12:13:00.125Z,100554.95
2023-03-28T12:15:37.684Z,100548.69
2023-03-28T12:18:14.520Z,100553.80
2023-03-28T12:20:52.166Z,100550.51
2023-03-28T12:23:28.676Z,100553.90
2023-03-28T12:26:09.441Z,100560.94
2023-03-28T12:28:44.889Z,100567.70
2023-03-28T12:31:19.784Z,100571.19
2023-03-28T12:33:57.586Z,100580.29
2023-03-28T12:36:35.836Z,100578.08
2023-03-28T12:39:20.158Z,100581.20
2023-03-28T12:41:50.691Z,100579.71
2023-03-28T12:44:24.669Z,100584.97
2023-03-28T12:46:58.493Z,100586.08
2023-03-28T12:49:35.972Z,100587.30
2023-03-28T12:52:12.317Z,100596.64
2023-03-28T12:55:01.476Z,100593.70
2023-03-28T12:57:48.541Z,100593.20
2023-03-28T13:00:26.337Z,100604.10
2023-03-28T13:03:14.258Z,100593.02
2023-03-28T13:05:51.380Z,100586.91
2023-03-28T13:08:29.164Z,100589.29
2023-03-28T13:11:09.465Z,100597.87
2023-03-28T13:13:50.377Z,100601.55
2023-03-28T13:16:28.533Z,100594.66
2023-03-28T13:19:10.411Z,100600.39
2023-03-28T13:21:47.792Z,100596.38
2023-03-28T13:24:34.094Z,100604.56
2023-03-28T13:27:12.362Z,100610.34
2023-03-28T13:29:49.115Z,100616.95
2023-03-28T13:32:22.883Z,100618.31
2023-03-28T13:34:56.804Z,100618.31
2023-03-28T13:37:38.371Z,100625.74
2023-03-28T13:40:54.624Z,100617.39
2023-03-28T13:43:28.814Z,100618.02
2023-03-28T13:46:03.380Z,100612.48
2023-03-28T13:48:40.093Z,100620.08
2023-03-28T13:51:18.057Z,100623.93
2023-03-28T13:53:50.337Z,100639.41
2023-03-28T13:56:26.499Z,100634.46
2023-03-28T13:59:00.758Z,100637.20
2023-03-28T14:01:38.811Z,100638.79
2023-03-28T14:04:20.005Z,100645.91
2023-03-28T14:06:53.610Z,100658.08
2023-03-28T14:09:38.058Z,100669.27
2023-03-28T14:12:13.616Z,100666.52
2023-03-28T14:14:47.611Z,100666.79
2023-03-28T14:17:22.058Z,100672.95
2023-03-28T14:19:56.907Z,100678.46
2023-03-28T14:22:30.568Z,100685.41
2023-03-28T14:25:04.446Z,100678.38
2023-03-28T14:27:39.301Z,100682.84
2023-03-28T14:30:22.197Z,100679.83
2023-03-28T14:33:01.887Z,100682.83
2023-03-28T14:35:34.822Z,100676.73
2023-03-28T14:38:08.530Z,100676.73
2023-03-28T14:40:41.884Z,100681.39
2023-03-28T14:43:21.762Z,100682.76
2023-03-28T14:45:56.443Z,100682.84
2023-03-28T14:48:29.460Z,100683.33
2023-03-28T14:51:04.017Z,100682.67
2023-03-28T14:53:42.413Z,100686.77
2023-03-28T14:56:17.951Z,100693.70
2023-03-28T14:58:51.781Z,100690.60
2023-03-28T15:01:24.843Z,100695.16
2023-03-28T15:04:02.422Z,100699.75
2023-03-28T15:06:35.681Z,100700.86
2023-03-28T15:09:19.336Z,100705.75
2023-03-28T15:11:51.385Z,100705.98
2023-03-28T15:14:31.585Z,100707.05
2023-03-28T15:17:03.754Z,100710.87
2023-03-28T15:19:37.753Z,100707.95
2023-03-28T15:22:14.993Z,100703.75
2023-03-28T15:24:47.164Z,100713.02
2023-03-28T15:27:24.297Z,100714.84
2023-03-28T15:29:56.789Z,100717.98
2023-03-28T15:32:29.222Z,100732.11
2023-03-28T15:35:05.113Z,100741.86
2023-03-28T15:37:46.134Z,100738.89
2023-03-28T15:40:31.394Z,100741.54
2023-03-28T15:43:03.652Z,100743.09
2023-03-28T15:45:46.587Z,100752.27
2023-03-28T15:48:20.456Z,100759.36
2023-03-28T15:50:56.560Z,100761.06
2023-03-28T15:53:31.285Z,100770.09
2023-03-28T15:56:09.333Z,100772.33
2023-03-28T15:58:46.078Z,100777.41
2023-03-28T16:01:23.898Z,100780.66
2023-03-28T16:04:25.642Z,100785.17
2023-03-28T16:07:05.812Z,100791.84
2023-03-28T16:09:37.746Z,100788.86
2023-03-28T16:12:12.557Z,100800.14
2023-03-28T16:14:47.599Z,100801.40
2023-03-28T16:17:20.479Z,100804.20
2023-03-28T16:19:53.064Z,100819.77
2023-03-28T16:22:25.137Z,100828.55
2023-03-28T16:24:57.514Z,100833.73
2023-03-28T16:27:29.277Z,100835.16
2023-03-28T16:30:01.810Z,100833.91
2023-03-28T16:32:33.639Z,100834.84
2023-03-28T16:35:06.343Z,100835.96
2023-03-28T16:37:38.509Z,100840.84
2023-03-28T16:40:12.361Z,100845.56
2023-03-28T16:42:44.733Z,100850.70
2023-03-28T16:45:16.756Z,100853.45
2023-03-28T16:47:48.792Z,100854.38
2023-03-28T16:50:21.156Z,100852.10
2023-03-28T16:52:53.197Z,100860.34
2023-03-28T16:55:25.396Z,100863.39
2023-03-28T16:57:57.421Z,100862.55
2023-03-28T17:00:29.901Z,100870.52
2023-03-28T17:03:02.249Z,100869.71
2023-03-28T17:05:34.672Z,100870.58
2023-03-28T17:08:07.267Z,100871.31
2023-03-28T17:10:43.374Z,100877.30
2023-03-28T17:13:16.034Z,100884.87
2023-03-28T17:15:48.202Z,100893.02
2023-03-28T17:18:20.433Z,100895.77
2023-03-28T17:21:02.247Z,100898.84
2023-03-28T17:23:34.690Z,100905.18
2023-03-28T17:26:08.394Z,100907.23
2023-03-28T17:28:43.537Z,100915.98
2023-03-28T17:31:17.842Z,100924.11
2023-03-28T17:33:50.548Z,100929.92
2023-03-28T17:36:24.388Z,100931.59
2023-03-28T17:38:58.340Z,100930.06
2023-03-28T17:41:31.060Z,100937.75
2023-03-28T17:44:05.571Z,100935.73
2023-03-28T17:46:38.845Z,100935.36
2023-03-28T17:49:11.374Z,100938.07
2023-03-28T17:51:43.424Z,100944.75
2023-03-28T17:54:15.403Z,100948.00
2023-03-28T17:56:47.711Z,100958.62
2023-03-28T17:59:19.782Z,100962.23
2023-03-28T18:01:52.176Z,100971.86
2023-03-28T18:04:24.206Z,100965.99
2023-03-28T18:06:57.038Z,100966.64
2023-03-28T18:09:29.393Z,100970.63
2023-03-28T18:12:01.897Z,100973.23
2023-03-28T18:14:34.067Z,100977.68
2023-03-28T18:17:07.320Z,100983.01
2023-03-28T18:19:40.103Z,100986.91
2023-03-28T18:22:12.079Z,100986.61
2023-03-28T18:24:44.083Z,100987.23
2023-03-28T18:27:16.594Z,100993.02
2023-03-28T18:29:49.494Z,100993.20
2023-03-28T18:32:21.674Z,100990.69
2023-03-28T18:34:53.846Z,100995.19
2023-03-28T18:37:27.223Z,100997.10
2023-03-28T18:39:59.392Z,100995.39
2023-03-28T18:42:32.985Z,100997.62
2023-03-28T18:45:05.158Z,100999.27
2023-03-28T18:47:39.584Z,101000.84
2023-03-28T18:50:13.327Z,101002.95
2023-03-28T18:52:45.257Z,101004.39
2023-03-28T18:55:17.360Z,101002.75
2023-03-28T18:57:49.287Z,101002.22
2023-03-28T19:00:22.789Z,101006.30
2023-03-28T19:02:55.195Z,101007.38
2023-03-28T19:05:27.752Z,101008.09
2023-03-28T19:07:59.766Z,101004.95
2023-03-28T19:10:31.675Z,101005.91
2023-03-28T19:13:04.099Z,101006.21
2023-03-28T19:15:37.376Z,101007.64
2023-03-28T19:18:09.550Z,101012.48
2023-03-28T19:20:41.476Z,101011.95
2023-03-28T19:23:14.213Z,101005.96
2023-03-28T19:25:46.741Z,101004.31
2023-03-28T19:28:19.689Z,101002.96
2023-03-28T19:30:57.178Z,101001.19
2023-03-28T19:33:29.923Z,101008.47
2023-03-28T19:36:02.534Z,101000.09
2023-03-28T19:38:38.465Z,101002.89
2023-03-28T19:41:19.204Z,101007.04
2023-03-28T19:43:52.274Z,101007.16
2023-03-28T19:46:33.839Z,101013.92
2023-03-28T19:49:08.537Z,101013.89
2023-03-28T19:51:40.890Z,101014.84
2023-03-28T19:54:13.845Z,101015.25
2023-03-28T19:56:46.115Z,101012.59
2023-03-28T19:59:18.741Z,101014.30
2023-03-28T20:01:51.208Z,101016.20
2023-03-28T20:04:23.860Z,101018.15
2023-03-28T20:06:56.161Z,101018.16
2023-03-28T20:09:28.457Z,101017.02
2023-03-28T20:12:00.505Z,101017.61
2023-03-28T20:14:32.738Z,101021.11
2023-03-28T20:17:04.806Z,101019.94
2023-03-28T20:19:37.135Z,101017.47
2023-03-28T20:22:09.262Z,101019.02
2023-03-28T20:24:41.924Z,101022.23
2023-03-28T20:27:13.843Z,101015.65
2023-03-28T20:29:47.081Z,101016.36
2023-03-28T20:32:18.942Z,101018.59
2023-03-28T20:34:51.324Z,101020.81
2023-03-28T20:37:23.722Z,101023.36
2023-03-28T20:39:56.470Z,101025.45
2023-03-28T20:42:30.316Z,101022.55
2023-03-28T20:45:03.929Z,101025.61
2023-03-28T20:47:37.926Z,101021.73
2023-03-28T20:50:12.895Z,101021.80
2023-03-28T20:52:44.814Z,101023.85
2023-03-28T20:55:16.844Z,101022.37
2023-03-28T20:57:49.062Z,101021.74
2023-03-28T21:00:24.307Z,101017.28
2023-03-28T21:02:56.218Z,101020.06
2023-03-28T21:05:30.289Z,101020.20
2023-03-28T21:08:02.333Z,101019.37
2023-03-28T21:10:36.582Z,101022.83
2023-03-28T21:13:08.523Z,101028.87
2023-03-28T21:15:40.725Z,101028.47
2023-03-28T21:18:13.002Z,101031.49
2023-03-28T21:20:45.932Z,101035.07
2023-03-28T21:23:18.025Z,101032.91
2023-03-28T21:25:53.509Z,101034.80
2023-03-28T21:28:25.556Z,101036.29
2023-03-28T21:31:01.534Z,101041.52
2023-03-28T21:33:33.720Z,101042.84
2023-03-28T21:36:07.358Z,101051.95
2023-03-28T21:38:39.419Z,101047.19
2023-03-28T21:41:12.794Z,101051.63
2023-03-28T21:43:45.298Z,101055.08
2023-03-28T21:46:18.807Z,101051.67
2023-03-28T21:48:51.147Z,101051.76
2023-03-28T21:51:23.543Z,101053.08
2023-03-28T21:53:55.536Z,101059.12
2023-03-28T21:56:27.834Z,101055.30
2023-03-28T21:58:59.693Z,101054.55
2023-03-28T22:01:31.860Z,101055.48
2023-03-28T22:04:03.821Z,101055.72
2023-03-28T22:06:35.963Z,101054.05
2023-03-28T22:09:08.396Z,101051.44
2023-03-28T22:11:40.402Z,101049.23
2023-03-28T22:14:13.036Z,101052.62
2023-03-28T22:16:45.227Z,101055.35
2023-03-28T22:19:18.942Z,101050.16
2023-03-28T22:21:50.911Z,101051.81
2023-03-28T22:24:24.761Z,101054.55
2023-03-28T22:26:57.440Z,101052.98
2023-03-28T22:29:29.542Z,101058.83
2023-03-28T22:32:01.694Z,101060.82
2023-03-28T22:34:33.998Z,101057.95
2023-03-28T22:37:05.840Z,101060.48
2023-03-28T22:39:38.134Z,101058.92
2023-03-28T22:42:11.912Z,101055.13
2023-03-28T22:44:43.788Z,101053.30
2023-03-28T22:47:18.034Z,101056.02
2023-03-28T22:49:53.969Z,101055.30
2023-03-28T22:52:27.225Z,101057.20
2023-03-28T22:54:58.968Z,101057.31
2023-03-28T22:57:30.952Z,101062.57
2023-03-28T23:00:03.386Z,101063.73
2023-03-28T23:02:35.606Z,101061.96
2023-03-28T23:05:08.570Z,101061.19
2023-03-28T23:07:41.609Z,101064.12
2023-03-28T23:10:17.686Z,101064.58
2023-03-28T23:12:50.143Z,101060.33
2023-03-28T23:15:22.245Z,101060.27
2023-03-28T23:17:54.147Z,101059.31
2023-03-28T23:20:27.191Z,101062.91
2023-03-28T23:22:59.275Z,101061.79
2023-03-28T23:25:31.114Z,101060.66
2023-03-28T23:28:03.089Z,101062.28
2023-03-28T23:30:34.921Z,101060.77
2023-03-28T23:33:07.411Z,101067.69
2023-03-28T23:35:39.357Z,101057.55
2023-03-28T23:38:14.267Z,101060.63
2023-03-28T23:40:46.263Z,101062.69
2023-03-28T23:43:18.145Z,101063.11
2023-03-28T23:45:50.436Z,101064.29
2023-03-28T23:48:22.292Z,101064.17
2023-03-28T23:50:54.201Z,101065.25
2023-03-28T23:53:26.487Z,101064.17
2023-03-28T23:55:58.786Z,101069.30
2023-03-28T23:58:30.950Z,101069.27
